Time;durP1;ratioP1;P1;durP2;ratioP2;P2;SDS_P1;SDS_P2;PMS_P1;PMS_P2;Temp;Humidity;BMP_temperature;BMP_pressure;BME280_temperature;BME280_humidity;BME280_pressure;Samples;Min_cycle;Max_cycle;Signal;HPM_P1;HPM_P2
2023/04/24 00:01:14;;;;;;;9.93;8.43;;;;;;;11.95;71.50;99901.53;5088706;28;20106;-64
2023/04/24 00:03:40;;;;;;;10.57;9.35;;;;;;;11.96;71.52;99903.19;5090308;28;20036;-63
2023/04/24 00:06:07;;;;;;;10.50;9.23;;;;;;;11.98;71.01;99898.97;5088853;28;20488;-64
2023/04/24 00:08:33;;;;;;;10.90;9.50;;;;;;;12.01;71.24;99908.72;5080027;28;20052;-63
2023/04/24 00:10:59;;;;;;;10.07;9.05;;;;;;;12.02;71.21;99902.03;5070154;28;20117;-63
2023/04/24 00:13:24;;;;;;;11.98;8.88;;;;;;;11.98;70.88;99896.19;5069662;28;20028;-64
2023/04/24 00:15:49;;;;;;;12.00;9.95;;;;;;;11.98;71.29;99901.75;5070529;28;20464;-64
2023/04/24 00:18:15;;;;;;;13.98;10.15;;;;;;;11.98;71.26;99906.50;5070541;28;20033;-64
2023/04/24 00:20:40;;;;;;;14.50;10.95;;;;;;;11.88;71.65;99903.78;5069227;28;20033;-64
2023/04/24 00:23:06;;;;;;;15.65;11.48;;;;;;;11.88;71.81;99904.59;5069431;28;20025;-64
2023/04/24 00:25:31;;;;;;;15.00;11.50;;;;;;;11.84;71.93;99905.47;5071223;28;20028;-64
2023/04/24 00:27:56;;;;;;;14.75;11.07;;;;;;;11.83;72.04;99910.19;5073117;28;20119;-64
2023/04/24 00:30:22;;;;;;;16.38;11.70;;;;;;;11.76;71.88;99910.47;5073468;28;20133;-63
2023/04/24 00:32:47;;;;;;;20.45;12.50;;;;;;;11.76;71.77;99912.41;5087724;28;20356;-64
2023/04/24 00:35:12;;;;;;;16.75;12.93;;;;;;;11.74;71.74;99915.47;5090990;28;20040;-64
2023/04/24 00:37:38;;;;;;;19.50;12.77;;;;;;;11.73;71.72;99921.31;5074545;28;20028;-64
2023/04/24 00:40:04;;;;;;;17.80;12.43;;;;;;;11.80;71.95;99916.28;5073297;28;20639;-63
2023/04/24 00:42:29;;;;;;;16.67;13.18;;;;;;;11.77;72.33;99923.25;5073084;28;20090;-63
2023/04/24 00:44:56;;;;;;;17.60;12.43;;;;;;;11.74;71.92;99925.75;5081450;28;20024;-64
2023/04/24 00:47:23;;;;;;;17.50;13.15;;;;;;;11.73;71.67;99936.03;5094056;28;20383;-64
2023/04/24 00:49:48;;;;;;;19.92;12.85;;;;;;;11.74;71.73;99926.56;5089688;28;20051;-64
2023/04/24 00:52:17;;;;;;;17.30;12.98;;;;;;;11.79;71.56;99915.47;5093801;28;20027;-63
2023/04/24 00:54:44;;;;;;;17.40;13.52;;;;;;;11.65;71.46;99924.69;5093714;28;20024;-65
2023/04/24 00:57:10;;;;;;;18.10;13.85;;;;;;;11.67;71.81;99922.44;5090417;28;20039;-63
2023/04/24 00:59:36;;;;;;;15.63;13.50;;;;;;;11.71;71.77;99921.59;5091947;28;20024;-63
2023/04/24 01:02:01;;;;;;;19.35;14.27;;;;;;;11.72;71.33;99925.22;5093587;28;20042;-64
2023/04/24 01:04:27;;;;;;;20.13;14.60;;;;;;;11.68;71.60;99918.56;5092884;28;20023;-63
2023/04/24 01:06:54;;;;;;;17.92;14.57;;;;;;;11.65;72.02;99921.91;5087015;28;20020;-63
2023/04/24 01:09:21;;;;;;;18.30;14.43;;;;;;;11.66;71.85;99920.78;5087372;28;20084;-64
2023/04/24 01:11:47;;;;;;;18.08;14.40;;;;;;;11.64;71.86;99912.72;5086863;28;20042;-63
2023/04/24 01:14:12;;;;;;;19.98;15.43;;;;;;;11.65;72.27;99919.13;5079161;28;20032;-63
2023/04/24 01:16:38;;;;;;;20.02;15.07;;;;;;;11.65;72.54;99924.69;5092230;28;20047;-63
2023/04/24 01:19:04;;;;;;;21.33;14.07;;;;;;;11.61;72.53;99916.06;5087069;28;20047;-64
2023/04/24 01:21:30;;;;;;;19.60;14.10;;;;;;;11.66;72.26;99918.00;5072902;28;20476;-64
2023/04/24 01:23:56;;;;;;;16.83;14.35;;;;;;;11.57;72.49;99917.75;5071851;28;20036;-64
2023/04/24 01:26:23;;;;;;;15.95;14.15;;;;;;;11.58;72.85;99930.53;5074653;28;20024;-64
2023/04/24 01:28:48;;;;;;;17.90;14.43;;;;;;;11.58;73.03;99916.63;5072595;28;20068;-64
2023/04/24 01:31:14;;;;;;;21.10;15.40;;;;;;;11.61;73.04;99918.03;5072354;28;20559;-64
2023/04/24 01:33:42;;;;;;;19.75;15.18;;;;;;;11.54;73.25;99916.34;5072700;28;20506;-64
2023/04/24 01:36:10;;;;;;;18.10;15.60;;;;;;;11.54;73.13;99923.88;5072155;28;20044;-64
2023/04/24 01:38:35;;;;;;;22.40;16.35;;;;;;;11.54;73.20;99924.69;5071963;28;20407;-64
2023/04/24 01:41:00;;;;;;;21.83;16.45;;;;;;;11.54;73.22;99919.13;5076600;28;20028;-64
2023/04/24 01:43:26;;;;;;;20.98;16.90;;;;;;;11.48;73.41;99925.00;5090677;28;20035;-64
2023/04/24 01:45:51;;;;;;;21.35;18.30;;;;;;;11.48;73.03;99914.72;5092176;28;20032;-64
2023/04/24 01:48:17;;;;;;;22.25;16.95;;;;;;;11.50;72.94;99912.47;5092688;28;20058;-64
2023/04/24 01:50:42;;;;;;;24.55;17.50;;;;;;;11.52;73.34;99918.59;5092683;28;20032;-64
2023/04/24 01:53:08;;;;;;;21.25;18.25;;;;;;;11.50;72.63;99923.59;5075734;28;20247;-64
2023/04/24 01:55:33;;;;;;;22.63;17.83;;;;;;;11.50;72.88;99918.03;5072812;28;20028;-64
2023/04/24 01:57:59;;;;;;;23.98;18.70;;;;;;;11.55;72.80;99914.41;5072518;28;20054;-64
2023/04/24 02:00:25;;;;;;;25.20;19.10;;;;;;;11.48;72.99;99920.28;5089110;28;20488;-64
2023/04/24 02:02:50;;;;;;;24.38;18.73;;;;;;;11.53;72.91;99925.81;5092325;28;20032;-64
2023/04/24 02:05:15;;;;;;;23.13;19.00;;;;;;;11.46;72.60;99927.22;5084275;28;20020;-64
2023/04/24 02:07:41;;;;;;;21.65;18.88;;;;;;;11.45;72.67;99925.56;5087561;28;20119;-63
2023/04/24 02:10:07;;;;;;;22.40;18.98;;;;;;;11.47;72.79;99932.50;5088529;28;20099;-64
2023/04/24 02:12:32;;;;;;;21.95;18.33;;;;;;;11.43;72.78;99928.63;5087293;28;20034;-64
2023/04/24 02:14:58;;;;;;;21.20;18.05;;;;;;;11.39;72.57;99930.28;5080997;28;20049;-63
2023/04/24 02:17:23;;;;;;;25.80;19.20;;;;;;;11.37;72.98;99929.75;5078066;28;20032;-64
2023/04/24 02:19:49;;;;;;;22.02;17.52;;;;;;;11.44;72.86;99938.63;5071032;28;20491;-64
2023/04/24 02:22:14;;;;;;;19.50;17.50;;;;;;;11.46;72.16;99930.00;5071642;28;20024;-64
2023/04/24 02:24:39;;;;;;;22.42;18.60;;;;;;;11.47;72.44;99935.28;5078545;28;20408;-64
2023/04/24 02:27:05;;;;;;;20.10;17.83;;;;;;;11.48;72.45;99931.41;5089400;28;20028;-64
2023/04/24 02:29:31;;;;;;;22.80;18.00;;;;;;;11.40;72.35;99934.75;5091895;28;20047;-64
2023/04/24 02:31:56;;;;;;;24.80;17.85;;;;;;;11.35;72.49;99931.13;5088444;28;20028;-64
2023/04/24 02:34:22;;;;;;;21.90;17.95;;;;;;;11.37;72.80;99932.53;5090828;28;20123;-63
2023/04/24 02:36:48;;;;;;;21.23;18.00;;;;;;;11.32;72.56;99949.22;5091741;28;20124;-64
2023/04/24 02:39:16;;;;;;;19.52;16.85;;;;;;;11.35;72.33;99923.63;5091811;28;20625;-63
2023/04/24 02:41:41;;;;;;;22.27;18.30;;;;;;;11.30;72.90;99930.03;5089821;28;20019;-64
2023/04/24 02:44:06;;;;;;;19.25;17.15;;;;;;;11.34;72.88;99921.97;5089132;28;20028;-64
2023/04/24 02:46:32;;;;;;;23.05;19.25;;;;;;;11.27;72.65;99922.25;5074373;28;20514;-64
2023/04/24 02:48:57;;;;;;;21.08;17.27;;;;;;;11.24;73.02;99920.06;5070849;28;20024;-64
2023/04/24 02:51:22;;;;;;;20.17;18.05;;;;;;;11.27;73.13;99918.66;5086519;28;20027;-64
2023/04/24 02:53:47;;;;;;;19.67;17.60;;;;;;;11.24;72.71;99908.13;5080025;28;20028;-64
2023/04/24 02:56:13;;;;;;;22.02;18.55;;;;;;;11.21;72.97;99911.44;5088560;28;20519;-63
2023/04/24 02:58:38;;;;;;;22.35;17.92;;;;;;;11.21;73.06;99912.28;5089411;28;20024;-64
2023/04/24 03:01:03;;;;;;;20.88;18.50;;;;;;;11.17;72.94;99910.34;5080680;28;20025;-64
2023/04/24 03:03:29;;;;;;;20.45;17.48;;;;;;;11.17;72.75;99913.97;5069552;28;20400;-64
2023/04/24 03:05:55;;;;;;;20.35;17.10;;;;;;;11.20;72.93;99910.63;5072491;28;20020;-64
2023/04/24 03:08:20;;;;;;;22.15;17.67;;;;;;;11.20;72.98;99904.22;5070875;28;20033;-64
2023/04/24 03:10:45;;;;;;;21.08;18.10;;;;;;;11.15;72.73;99916.16;5069844;28;20067;-64
2023/04/24 03:13:11;;;;;;;20.77;18.58;;;;;;;11.11;72.76;99914.22;5074313;28;20024;-64
2023/04/24 03:15:36;;;;;;;21.15;18.05;;;;;;;11.12;72.70;99918.66;5080765;28;20062;-64
2023/04/24 03:18:02;;;;;;;21.20;17.42;;;;;;;11.13;72.14;99920.34;5069898;28;20400;-64
2023/04/24 03:20:27;;;;;;;23.23;16.73;;;;;;;11.19;72.36;99913.66;5070435;28;20028;-64
2023/04/24 03:22:53;;;;;;;20.20;17.65;;;;;;;11.19;72.46;99916.44;5070651;28;20036;-65
2023/04/24 03:25:18;;;;;;;17.83;15.80;;;;;;;11.22;72.02;99915.88;5069664;28;20043;-64
2023/04/24 03:27:43;;;;;;;18.33;16.05;;;;;;;11.17;72.46;99929.78;5070994;28;20147;-64
2023/04/24 03:30:09;;;;;;;18.45;16.42;;;;;;;11.16;72.21;99917.00;5084606;28;20043;-64
2023/04/24 03:32:34;;;;;;;19.58;16.15;;;;;;;11.11;72.32;99914.22;5082802;28;20040;-64
2023/04/24 03:35:00;;;;;;;17.35;15.32;;;;;;;11.09;72.40;99922.03;5069971;28;20115;-63
2023/04/24 03:37:26;;;;;;;20.23;15.90;;;;;;;11.08;72.44;99921.16;5085842;28;20128;-63
2023/04/24 03:39:51;;;;;;;17.30;14.68;;;;;;;11.06;72.60;99915.91;5089950;28;20055;-63
2023/04/24 03:42:16;;;;;;;17.48;15.57;;;;;;;11.06;72.68;99924.25;5082055;28;20070;-64
2023/04/24 03:44:42;;;;;;;17.10;14.43;;;;;;;11.12;72.23;99910.34;5085715;28;20028;-64
2023/04/24 03:47:07;;;;;;;16.88;14.52;;;;;;;11.15;71.95;99909.78;5084716;28;20036;-64
2023/04/24 03:49:32;;;;;;;20.98;14.20;;;;;;;11.12;71.75;99916.75;5088555;28;20067;-63
2023/04/24 03:51:57;;;;;;;16.98;14.02;;;;;;;11.04;72.15;99918.16;5089796;28;20382;-65
2023/04/24 03:54:23;;;;;;;17.20;14.48;;;;;;;11.02;72.39;99917.56;5089915;28;20032;-65
2023/04/24 03:56:48;;;;;;;19.20;15.00;;;;;;;11.01;72.19;99918.69;5089888;28;20439;-65
2023/04/24 03:59:13;;;;;;;18.45;14.13;;;;;;;11.09;72.40;99920.09;5082917;28;20039;-65
2023/04/24 04:01:39;;;;;;;20.27;14.23;;;;;;;11.09;72.27;99913.69;5073076;28;20236;-65
2023/04/24 04:04:05;;;;;;;16.52;14.13;;;;;;;11.02;71.84;99919.53;5076639;28;20483;-64
2023/04/24 04:06:30;;;;;;;18.58;13.75;;;;;;;11.00;72.56;99919.81;5073185;28;20020;-65
2023/04/24 04:08:56;;;;;;;17.73;14.20;;;;;;;10.96;72.46;99918.69;5073715;28;20036;-65
2023/04/24 04:11:21;;;;;;;17.45;13.70;;;;;;;10.90;72.38;99914.25;5073829;28;20036;-64
2023/04/24 04:13:47;;;;;;;17.95;13.88;;;;;;;10.95;72.32;99922.56;5073006;28;20032;-64
2023/04/24 04:16:13;;;;;;;14.35;12.95;;;;;;;10.93;72.28;99919.25;5073252;28;20059;-65
2023/04/24 04:18:38;;;;;;;16.73;13.00;;;;;;;10.93;72.45;99918.44;5073802;28;20036;-64
2023/04/24 04:21:03;;;;;;;14.93;13.18;;;;;;;10.95;72.50;99928.13;5072515;28;20483;-65
2023/04/24 04:23:29;;;;;;;19.75;13.48;;;;;;;10.98;72.40;99926.75;5073547;28;20028;-65
2023/04/24 04:25:54;;;;;;;17.13;14.82;;;;;;;10.82;72.81;99925.91;5072088;28;20025;-65
2023/04/24 04:28:20;;;;;;;15.23;13.63;;;;;;;10.83;72.86;99924.81;5071567;28;20067;-64
2023/04/24 04:30:46;;;;;;;15.82;13.23;;;;;;;10.85;73.01;99917.03;5071656;28;20039;-65
2023/04/24 04:33:12;;;;;;;14.57;13.13;;;;;;;10.83;72.72;99927.56;5075298;28;20035;-65
2023/04/24 04:35:37;;;;;;;14.30;12.82;;;;;;;10.83;72.97;99930.34;5072622;28;20107;-65
2023/04/24 04:38:02;;;;;;;14.10;12.70;;;;;;;10.82;73.10;99928.69;5072531;28;20563;-64
2023/04/24 04:40:28;;;;;;;14.75;13.35;;;;;;;10.78;73.62;99933.97;5072086;28;20111;-65
2023/04/24 04:42:53;;;;;;;14.45;13.05;;;;;;;10.82;73.57;99928.69;5072486;28;20021;-64
2023/04/24 04:45:20;;;;;;;13.35;12.05;;;;;;;10.85;73.55;99930.09;5073845;28;20417;-64
2023/04/24 04:47:46;;;;;;;14.35;12.93;;;;;;;10.87;73.59;99939.78;5082429;28;20032;-65
2023/04/24 04:50:11;;;;;;;13.30;11.77;;;;;;;10.84;73.34;99942.28;5076363;28;20028;-64
2023/04/24 04:52:36;;;;;;;12.32;11.02;;;;;;;10.80;73.68;99945.59;5093618;28;20107;-63
2023/04/24 04:55:02;;;;;;;12.35;11.25;;;;;;;10.82;73.77;99948.13;5083974;28;20063;-64
2023/04/24 04:57:27;;;;;;;11.90;10.73;;;;;;;10.79;73.85;99941.19;5072876;28;20017;-64
2023/04/24 04:59:53;;;;;;;12.25;11.15;;;;;;;10.80;73.72;99947.56;5072865;28;20043;-64
2023/04/24 05:02:18;;;;;;;10.88;9.88;;;;;;;10.82;73.35;99948.97;5074523;28;20132;-64
2023/04/24 05:04:44;;;;;;;10.23;9.23;;;;;;;10.82;73.64;99951.72;5072007;28;20423;-64
2023/04/24 05:07:10;;;;;;;10.10;9.25;;;;;;;10.75;74.03;99951.16;5073156;28;20028;-64
2023/04/24 05:09:35;;;;;;;10.25;9.25;;;;;;;10.77;74.27;99950.91;5070590;28;20075;-63
2023/04/24 05:12:01;;;;;;;10.93;9.57;;;;;;;10.74;74.19;99943.13;5076985;28;20503;-63
2023/04/24 05:14:27;;;;;;;9.75;8.85;;;;;;;10.75;74.24;99955.88;5071931;28;20032;-63
2023/04/24 05:16:52;;;;;;;9.57;8.55;;;;;;;10.76;74.38;99954.78;5075905;28;20051;-65
2023/04/24 05:19:17;;;;;;;9.27;8.38;;;;;;;10.71;74.61;99957.56;5074833;28;20107;-64
2023/04/24 05:21:43;;;;;;;9.90;8.20;;;;;;;10.67;74.82;99953.66;5091171;28;20089;-64
2023/04/24 05:24:08;;;;;;;8.38;7.53;;;;;;;10.69;74.67;99954.19;5082029;28;20537;-64
2023/04/24 05:26:33;;;;;;;7.50;6.80;;;;;;;10.70;74.78;99964.22;5087918;28;20510;-64
2023/04/24 05:28:59;;;;;;;6.95;6.28;;;;;;;10.69;74.91;99963.38;5075923;28;20435;-63
2023/04/24 05:31:25;;;;;;;6.25;5.63;;;;;;;10.69;74.74;99973.63;5071563;28;20021;-64
2023/04/24 05:33:50;;;;;;;5.45;4.78;;;;;;;10.73;74.59;99970.06;5071762;28;20059;-64
2023/04/24 05:36:15;;;;;;;5.32;4.70;;;;;;;10.76;74.71;99976.97;5077257;28;20097;-63
2023/04/24 05:38:41;;;;;;;4.90;3.22;;;;;;;10.77;74.51;99975.88;5083164;28;20089;-63
2023/04/24 05:41:06;;;;;;;3.28;2.92;;;;;;;10.72;74.26;99985.03;5077895;28;20036;-63
2023/04/24 05:43:31;;;;;;;3.58;2.50;;;;;;;10.76;75.10;99985.31;5070919;28;20032;-64
2023/04/24 05:45:57;;;;;;;2.20;2.00;;;;;;;10.73;74.71;99985.88;5075848;28;20039;-64
2023/04/24 05:48:22;;;;;;;2.55;2.30;;;;;;;10.71;74.63;99988.91;5077956;28;20120;-64
2023/04/24 05:50:48;;;;;;;2.85;2.00;;;;;;;10.72;74.19;100001.66;5074120;28;20063;-64
2023/04/24 05:53:13;;;;;;;2.05;1.73;;;;;;;10.68;74.05;100005.28;5072376;28;20020;-64
2023/04/24 05:55:39;;;;;;;2.67;2.28;;;;;;;10.69;74.05;100001.38;5079337;28;20052;-64
2023/04/24 05:58:04;;;;;;;2.10;1.90;;;;;;;10.66;74.52;100007.50;5090356;28;20020;-64
2023/04/24 06:00:30;;;;;;;1.90;1.80;;;;;;;10.70;74.39;100008.63;5075099;28;20043;-64
2023/04/24 06:02:55;;;;;;;2.83;2.00;;;;;;;10.72;74.17;100017.50;5076780;28;20032;-64
2023/04/24 06:05:21;;;;;;;4.10;2.08;;;;;;;10.66;74.48;100013.88;5067916;28;20024;-64
2023/04/24 06:07:47;;;;;;;3.75;2.40;;;;;;;10.70;74.41;100023.34;5070847;28;20746;-64
2023/04/24 06:10:12;;;;;;;2.45;2.22;;;;;;;10.72;74.33;100028.59;5066831;28;20837;-63
2023/04/24 06:12:37;;;;;;;2.75;2.55;;;;;;;10.71;74.06;100026.94;5077882;28;20119;-63
2023/04/24 06:15:03;;;;;;;4.25;2.83;;;;;;;10.70;74.42;100031.66;5086983;28;20048;-64
2023/04/24 06:17:29;;;;;;;3.88;3.20;;;;;;;10.72;74.41;100028.59;5081105;28;20032;-63
2023/04/24 06:19:54;;;;;;;4.35;3.95;;;;;;;10.62;74.63;100036.91;5071268;28;20039;-64
2023/04/24 06:22:19;;;;;;;5.72;4.60;;;;;;;10.60;74.64;100044.66;5079679;28;20032;-64
2023/04/24 06:24:45;;;;;;;7.22;4.65;;;;;;;10.61;74.84;100046.31;5080793;28;20024;-64
2023/04/24 06:27:10;;;;;;;6.38;4.40;;;;;;;10.65;74.77;100050.22;5085705;28;20020;-64
2023/04/24 06:29:36;;;;;;;7.72;5.43;;;;;;;10.66;74.83;100063.00;5085416;28;20105;-65
2023/04/24 06:32:01;;;;;;;5.22;4.80;;;;;;;10.67;75.19;100076.59;5073034;28;20040;-65
2023/04/24 06:34:27;;;;;;;6.10;5.10;;;;;;;10.62;74.94;100078.53;5068107;28;20487;-65
2023/04/24 06:36:52;;;;;;;7.13;5.65;;;;;;;10.63;74.85;100092.13;5069747;28;20528;-67
2023/04/24 06:39:17;;;;;;;8.15;6.13;;;;;;;10.61;75.17;100113.78;5072295;28;20032;-64
2023/04/24 06:41:42;;;;;;;7.30;6.20;;;;;;;10.64;74.74;100109.63;5087538;28;20020;-66
2023/04/24 06:44:08;;;;;;;7.55;6.60;;;;;;;10.65;74.82;100114.06;5084474;28;20043;-66
2023/04/24 06:46:33;;;;;;;7.10;6.25;;;;;;;10.68;74.71;100122.69;5084152;28;20051;-66
2023/04/24 06:48:58;;;;;;;8.48;6.82;;;;;;;10.64;74.77;100115.16;5072010;28;20060;-65
2023/04/24 06:51:25;;;;;;;7.97;6.85;;;;;;;10.57;74.74;100127.38;5076635;28;20035;-65
2023/04/24 06:53:51;;;;;;;10.65;8.55;;;;;;;10.54;74.71;100144.56;5073362;28;20055;-66
2023/04/24 06:56:17;;;;;;;11.23;8.90;;;;;;;10.52;74.70;100155.06;5074015;28;20089;-63
2023/04/24 06:58:42;;;;;;;11.65;8.95;;;;;;;10.53;74.64;100162.31;5078774;28;20376;-64
2023/04/24 07:01:07;;;;;;;13.73;9.65;;;;;;;10.56;74.82;100164.53;5071080;28;20029;-65
2023/04/24 07:03:32;;;;;;;11.52;8.75;;;;;;;10.53;74.54;100169.78;5075438;28;20027;-65
2023/04/24 07:05:58;;;;;;;13.00;9.77;;;;;;;10.49;74.42;100186.16;5073197;28;20464;-65
2023/04/24 07:08:23;;;;;;;15.82;9.98;;;;;;;10.49;74.23;100185.28;5086121;28;20032;-64
2023/04/24 07:10:50;;;;;;;16.50;10.55;;;;;;;10.47;74.09;100195.84;5076835;28;20197;-65
2023/04/24 07:13:15;;;;;;;15.02;9.43;;;;;;;10.48;74.21;100205.84;5075967;28;20673;-64
2023/04/24 07:15:41;;;;;;;16.15;10.48;;;;;;;10.48;74.12;100214.16;5072241;28;20067;-66
2023/04/24 07:18:06;;;;;;;14.88;10.52;;;;;;;10.48;74.48;100226.09;5070047;28;20030;-63
2023/04/24 07:20:33;;;;;;;14.23;9.98;;;;;;;10.46;74.63;100233.84;5068224;28;20024;-63
2023/04/24 07:22:58;;;;;;;12.30;9.45;;;;;;;10.47;74.42;100238.28;5069518;28;20044;-63
2023/04/24 07:25:23;;;;;;;13.68;10.18;;;;;;;10.50;74.34;100245.25;5077939;28;20358;-63
2023/04/24 07:27:48;;;;;;;17.02;10.70;;;;;;;10.52;74.89;100254.97;5076412;28;20036;-62
2023/04/24 07:30:14;;;;;;;13.75;10.65;;;;;;;10.47;74.82;100252.16;5076425;28;20109;-61
2023/04/24 07:32:39;;;;;;;15.15;11.10;;;;;;;10.51;74.80;100261.63;5076945;28;20494;-62
2023/04/24 07:35:05;;;;;;;14.90;10.93;;;;;;;10.48;75.34;100275.19;5081524;28;20043;-65
2023/04/24 07:37:30;;;;;;;13.45;9.95;;;;;;;10.47;75.48;100268.81;5085443;28;20059;-62
2023/04/24 07:39:56;;;;;;;12.25;8.93;;;;;;;10.48;74.94;100278.81;5085991;28;20013;-62
2023/04/24 07:42:22;;;;;;;11.55;6.90;;;;;;;10.40;74.37;100290.41;5082213;28;20032;-61
2023/04/24 07:44:47;;;;;;;12.10;6.53;;;;;;;10.38;74.54;100298.16;5074488;28;20036;-62
2023/04/24 07:47:15;;;;;;;11.45;6.30;;;;;;;10.37;74.42;100310.34;5078730;28;20501;-62
2023/04/24 07:49:42;;;;;;;11.93;6.75;;;;;;;10.41;74.05;100310.66;5084257;28;20131;-63
2023/04/24 07:52:07;;;;;;;13.48;5.93;;;;;;;10.37;73.77;100323.38;5086770;28;20028;-63
2023/04/24 07:54:33;;;;;;;12.48;5.93;;;;;;;10.33;73.82;100331.41;5092077;28;20058;-63
2023/04/24 07:56:58;;;;;;;13.35;5.90;;;;;;;10.30;73.86;100331.94;5090532;28;20391;-63
2023/04/24 07:59:23;;;;;;;13.05;6.03;;;;;;;10.34;74.39;100343.34;5076857;28;20114;-64
2023/04/24 08:01:48;;;;;;;18.70;6.57;;;;;;;10.39;74.29;100347.00;5081120;28;20040;-63
2023/04/24 08:04:14;;;;;;;14.45;5.70;;;;;;;10.38;74.36;100345.31;5078882;28;20115;-61
2023/04/24 08:06:39;;;;;;;14.25;6.20;;;;;;;10.42;73.91;100351.19;5090260;28;20804;-64
2023/04/24 08:09:07;;;;;;;15.70;6.18;;;;;;;10.41;74.53;100358.66;5079265;28;20070;-63
2023/04/24 08:11:32;;;;;;;17.38;6.20;;;;;;;10.46;74.01;100363.44;5084001;28;20016;-64
2023/04/24 08:13:58;;;;;;;17.40;6.45;;;;;;;10.47;74.34;100365.94;5078741;28;20376;-60
2023/04/24 08:16:26;;;;;;;16.10;6.45;;;;;;;10.49;74.55;100373.97;5076632;28;20048;-62
2023/04/24 08:18:54;;;;;;;19.33;6.95;;;;;;;10.46;75.03;100369.81;5075017;28;20032;-64
2023/04/24 08:21:20;;;;;;;10.13;5.18;;;;;;;10.80;79.03;100380.59;5082462;28;20021;-62
2023/04/24 08:23:46;;;;;;;20.45;7.00;;;;;;;10.84;75.88;100376.19;5078174;28;20026;-62
2023/04/24 08:26:13;;;;;;;19.35;6.07;;;;;;;11.21;77.73;100387.28;5071569;28;20048;-62
2023/04/24 08:28:38;;;;;;;17.90;6.53;;;;;;;11.01;73.41;100388.00;5084977;28;20020;-63
2023/04/24 08:31:04;;;;;;;15.32;7.07;;;;;;;10.92;73.07;100405.41;5074914;28;20102;-62
2023/04/24 08:33:34;;;;;;;13.35;6.35;;;;;;;10.81;73.62;100404.50;5093035;28;20137;-63
2023/04/24 08:36:04;;;;;;;15.50;6.93;;;;;;;10.76;74.06;100408.06;5085833;28;20021;-63
2023/04/24 08:38:30;;;;;;;18.70;7.82;;;;;;;10.72;73.87;100412.47;5087289;28;20039;-62
2023/04/24 08:40:58;;;;;;;16.30;6.75;;;;;;;10.76;73.76;100418.34;5087214;28;20707;-60
2023/04/24 08:43:24;;;;;;;12.30;5.43;;;;;;;10.74;73.76;100428.88;5085518;28;20510;-64
2023/04/24 08:45:50;;;;;;;18.20;6.00;;;;;;;10.69;72.33;100431.59;5074037;28;20208;-65
2023/04/24 08:48:17;;;;;;;16.02;5.55;;;;;;;10.66;73.15;100432.97;5079780;28;20380;-64
2023/04/24 08:50:44;;;;;;;17.25;5.95;;;;;;;10.71;73.61;100446.06;5081841;28;20467;-62
2023/04/24 08:53:10;;;;;;;16.45;5.47;;;;;;;10.71;73.32;100451.63;5083981;28;20032;-66
2023/04/24 08:55:36;;;;;;;14.40;5.20;;;;;;;10.75;73.83;100452.75;5076260;28;20028;-65
2023/04/24 08:58:02;;;;;;;15.88;5.57;;;;;;;10.77;73.86;100456.13;5071972;28;20048;-64
2023/04/24 09:00:28;;;;;;;17.75;5.55;;;;;;;10.77;73.81;100459.72;5078672;28;20043;-65
2023/04/24 09:02:55;;;;;;;16.50;5.20;;;;;;;10.76;73.03;100465.53;5089987;28;20028;-65
2023/04/24 09:05:22;;;;;;;15.98;5.05;;;;;;;10.72;72.89;100475.47;5083457;28;20115;-65
2023/04/24 09:07:55;;;;;;;17.77;5.57;;;;;;;10.69;73.24;100471.31;5072908;28;20050;-63
2023/04/24 09:10:22;;;;;;;14.98;4.93;;;;;;;10.63;71.83;100474.28;5084040;28;20040;-64
2023/04/24 09:12:47;;;;;;;8.60;3.63;;;;;;;10.61;71.82;100477.34;5089940;28;20020;-65
2023/04/24 09:15:13;;;;;;;16.85;4.57;;;;;;;10.65;71.40;100488.72;5080198;28;20376;-64
2023/04/24 09:17:38;;;;;;;15.57;5.00;;;;;;;10.64;72.03;100487.06;5075053;28;20035;-63
2023/04/24 09:20:04;;;;;;;15.00;4.70;;;;;;;10.65;71.76;100492.38;5071125;28;20073;-64
2023/04/24 09:22:30;;;;;;;12.18;4.53;;;;;;;10.68;72.31;100493.75;5074422;28;20024;-65
2023/04/24 09:25:05;;;;;;;14.30;4.50;;;;;;;10.67;71.67;100492.09;5081539;28;20467;-58
2023/04/24 09:27:31;;;;;;;14.60;4.75;;;;;;;10.68;71.76;100505.69;5073770;28;20043;-65
2023/04/24 09:29:57;;;;;;;16.48;4.47;;;;;;;10.71;72.35;100521.00;5071986;28;20036;-64
2023/04/24 09:32:25;;;;;;;19.42;5.13;;;;;;;10.68;72.88;100521.53;5071686;28;20032;-64
2023/04/24 09:35:06;;;;;;;14.75;4.20;;;;;;;10.74;72.40;100526.03;5081278;28;20036;-65
2023/04/24 09:37:35;;;;;;;13.82;3.80;;;;;;;10.67;71.87;100534.56;5079351;28;20391;-64
2023/04/24 09:40:11;;;;;;;12.45;3.50;;;;;;;10.62;71.07;100544.78;5091292;28;20075;-65
2023/04/24 09:42:37;;;;;;;13.23;3.83;;;;;;;10.57;71.49;100546.41;5077199;28;20361;-65
2023/04/24 09:45:03;;;;;;;14.00;4.60;;;;;;;10.52;71.69;100549.09;5069990;28;20066;-65
2023/04/24 09:47:35;;;;;;;11.82;3.70;;;;;;;10.51;71.90;100539.13;5083073;28;20028;-65
2023/04/24 09:50:09;;;;;;;12.32;3.38;;;;;;;10.54;71.60;100560.81;5072622;28;20035;-63
2023/04/24 09:52:34;;;;;;;12.00;3.38;;;;;;;10.55;70.93;100568.03;5075425;28;20157;-64
2023/04/24 09:54:59;;;;;;;9.10;2.70;;;;;;;10.58;69.99;100566.66;5075234;28;20085;-65
2023/04/24 09:57:24;;;;;;;11.98;2.97;;;;;;;10.61;70.00;100573.63;5078119;28;20032;-65
2023/04/24 09:59:53;;;;;;;10.68;3.13;;;;;;;10.67;69.81;100575.38;5090389;28;20493;-65
2023/04/24 10:02:20;;;;;;;10.55;3.17;;;;;;;10.63;69.05;100579.75;5079255;28;20024;-62
2023/04/24 10:04:56;;;;;;;9.10;2.95;;;;;;;10.71;70.35;100576.53;5078271;28;20024;-64
2023/04/24 10:07:21;;;;;;;9.50;3.08;;;;;;;10.85;70.78;100590.84;5068250;28;20090;-65
2023/04/24 10:09:47;;;;;;;11.07;4.18;;;;;;;10.90;70.59;100583.41;5078532;28;20434;-64
2023/04/24 10:12:13;;;;;;;12.98;3.35;;;;;;;11.01;70.05;100581.56;5080474;28;20027;-65
2023/04/24 10:14:39;;;;;;;10.30;2.92;;;;;;;11.01;69.05;100593.50;5077880;28;20467;-64
2023/04/24 10:17:06;;;;;;;11.48;2.75;;;;;;;11.03;68.43;100582.13;5073264;28;20100;-65
2023/04/24 10:19:33;;;;;;;10.57;2.83;;;;;;;10.91;67.61;100596.16;5078450;28;20047;-64
2023/04/24 10:21:59;;;;;;;7.00;2.80;;;;;;;10.87;66.86;100580.31;5087750;28;20028;-64
2023/04/24 10:24:25;;;;;;;7.03;2.55;;;;;;;10.92;67.58;100597.00;5089521;28;20051;-68
2023/04/24 10:26:51;;;;;;;9.55;2.40;;;;;;;10.88;66.21;100599.47;5083245;28;20055;-65
2023/04/24 10:29:18;;;;;;;3.65;1.70;;;;;;;10.80;65.20;100614.66;5086705;28;20032;-66
2023/04/24 10:31:45;;;;;;;4.38;1.40;;;;;;;10.77;64.56;100609.63;5082806;28;20328;-62
2023/04/24 10:34:11;;;;;;;4.57;1.60;;;;;;;10.67;65.02;100605.91;5074490;28;20145;-62
2023/04/24 10:36:43;;;;;;;4.38;1.60;;;;;;;10.70;65.73;100619.28;5069944;28;20028;-63
2023/04/24 10:39:11;;;;;;;5.05;1.65;;;;;;;10.73;64.88;100622.38;5072115;28;20063;-63
2023/04/24 10:41:38;;;;;;;2.60;1.33;;;;;;;10.73;64.61;100629.84;5082718;28;20036;-64
2023/04/24 10:44:14;;;;;;;3.92;1.30;;;;;;;10.75;65.16;100633.19;5072139;28;20036;-64
2023/04/24 10:46:44;;;;;;;2.55;1.30;;;;;;;10.70;64.69;100630.38;5069382;28;20540;-65
2023/04/24 10:49:09;;;;;;;7.00;1.50;;;;;;;10.70;65.27;100631.22;5075620;28;20040;-63
2023/04/24 10:51:53;;;;;;;5.03;1.30;;;;;;;10.77;66.08;100634.63;5082226;28;20029;-65
2023/04/24 10:54:36;;;;;;;3.38;1.45;;;;;;;10.79;65.81;100634.34;5077957;28;20032;-66
2023/04/24 10:57:33;;;;;;;2.17;1.42;;;;;;;10.89;65.89;100633.66;5081077;28;20037;-65
2023/04/24 11:00:36;;;;;;;5.60;1.92;;;;;;;10.89;65.61;100644.75;5022245;28;20560;-66
2023/04/24 11:03:04;;;;;;;6.43;1.70;;;;;;;10.90;65.00;100646.44;5007895;28;20116;-65
2023/04/24 11:05:50;;;;;;;6.05;1.90;;;;;;;10.90;65.34;100646.44;5076287;28;20044;-64
2023/04/24 11:08:24;;;;;;;7.05;1.50;;;;;;;10.88;64.94;100643.06;5086582;28;20043;-60
2023/04/24 11:10:57;;;;;;;3.00;1.27;;;;;;;10.88;65.57;100655.00;5074534;28;20029;-67
2023/04/24 11:13:24;;;;;;;4.50;1.50;;;;;;;10.86;65.14;100648.88;5082263;28;20032;-65
2023/04/24 11:16:15;;;;;;;6.13;1.58;;;;;;;10.89;65.46;100656.69;5068745;28;20495;-64